sensor_id;sensor_type;location;lat;lon;timestamp;P1;durP1;ratioP1;P2;durP2;ratioP2
45642;SDS011;31358;46.008;11.144;2023-03-19T00:02:09;33.20;;;17.65;;
45642;SDS011;31358;46.008;11.144;2023-03-19T00:04:35;27.65;;;16.60;;
45642;SDS011;31358;46.008;11.144;2023-03-19T00:07:01;29.17;;;17.58;;
45642;SDS011;31358;46.008;11.144;2023-03-19T00:09:26;30.80;;;17.13;;
45642;SDS011;31358;46.008;11.144;2023-03-19T00:11:53;30.05;;;17.30;;
45642;SDS011;31358;46.008;11.144;2023-03-19T00:14:19;29.70;;;17.88;;
45642;SDS011;31358;46.008;11.144;2023-03-19T00:16:44;32.35;;;19.17;;
45642;SDS011;31358;46.008;11.144;2023-03-19T00:19:10;32.15;;;19.40;;
45642;SDS011;31358;46.008;11.144;2023-03-19T00:21:36;36.58;;;20.20;;
45642;SDS011;31358;46.008;11.144;2023-03-19T00:24:02;33.22;;;17.35;;
45642;SDS011;31358;46.008;11.144;2023-03-19T00:26:31;28.30;;;17.17;;
45642;SDS011;31358;46.008;11.144;2023-03-19T00:28:58;31.40;;;17.40;;
45642;SDS011;31358;46.008;11.144;2023-03-19T00:31:25;27.10;;;16.38;;
45642;SDS011;31358;46.008;11.144;2023-03-19T00:33:52;29.80;;;18.42;;
45642;SDS011;31358;46.008;11.144;2023-03-19T00:36:18;29.77;;;17.38;;
45642;SDS011;31358;46.008;11.144;2023-03-19T00:38:45;27.55;;;17.10;;
45642;SDS011;31358;46.008;11.144;2023-03-19T00:41:11;28.15;;;17.50;;
45642;SDS011;31358;46.008;11.144;2023-03-19T00:43:37;27.38;;;16.70;;
45642;SDS011;31358;46.008;11.144;2023-03-19T00:46:04;28.23;;;18.13;;
45642;SDS011;31358;46.008;11.144;2023-03-19T00:48:30;26.02;;;16.88;;
45642;SDS011;31358;46.008;11.144;2023-03-19T00:51:00;30.67;;;18.83;;
45642;SDS011;31358;46.008;11.144;2023-03-19T00:53:28;29.08;;;16.58;;
45642;SDS011;31358;46.008;11.144;2023-03-19T00:55:54;29.30;;;17.25;;
45642;SDS011;31358;46.008;11.144;2023-03-19T00:58:20;33.10;;;18.65;;
45642;SDS011;31358;46.008;11.144;2023-03-19T01:00:45;28.77;;;18.08;;
45642;SDS011;31358;46.008;11.144;2023-03-19T01:03:12;31.95;;;18.50;;
45642;SDS011;31358;46.008;11.144;2023-03-19T01:05:38;31.83;;;18.15;;
45642;SDS011;31358;46.008;11.144;2023-03-19T01:08:05;30.38;;;17.40;;
45642;SDS011;31358;46.008;11.144;2023-03-19T01:10:31;29.40;;;18.17;;
45642;SDS011;31358;46.008;11.144;2023-03-19T01:12:58;30.77;;;16.85;;
45642;SDS011;31358;46.008;11.144;2023-03-19T01:15:24;30.35;;;18.60;;
45642;SDS011;31358;46.008;11.144;2023-03-19T01:17:50;35.08;;;20.83;;
45642;SDS011;31358;46.008;11.144;2023-03-19T01:20:15;31.90;;;19.00;;
45642;SDS011;31358;46.008;11.144;2023-03-19T01:22:43;30.13;;;17.73;;
45642;SDS011;31358;46.008;11.144;2023-03-19T01:25:10;32.75;;;19.45;;
45642;SDS011;31358;46.008;11.144;2023-03-19T01:27:37;30.85;;;17.90;;
45642;SDS011;31358;46.008;11.144;2023-03-19T01:30:04;35.13;;;19.10;;
45642;SDS011;31358;46.008;11.144;2023-03-19T01:32:31;31.60;;;17.65;;
45642;SDS011;31358;46.008;11.144;2023-03-19T01:34:57;32.85;;;19.30;;
45642;SDS011;31358;46.008;11.144;2023-03-19T01:37:23;31.27;;;18.17;;
45642;SDS011;31358;46.008;11.144;2023-03-19T01:39:49;31.13;;;18.50;;
45642;SDS011;31358;46.008;11.144;2023-03-19T01:42:15;32.40;;;19.85;;
45642;SDS011;31358;46.008;11.144;2023-03-19T01:44:41;32.58;;;19.00;;
45642;SDS011;31358;46.008;11.144;2023-03-19T01:47:16;33.17;;;19.05;;
45642;SDS011;31358;46.008;11.144;2023-03-19T01:49:50;31.10;;;19.50;;
45642;SDS011;31358;46.008;11.144;2023-03-19T01:52:18;32.00;;;19.25;;
45642;SDS011;31358;46.008;11.144;2023-03-19T01:54:44;33.03;;;19.00;;
45642;SDS011;31358;46.008;11.144;2023-03-19T01:57:12;33.20;;;19.52;;
45642;SDS011;31358;46.008;11.144;2023-03-19T01:59:40;30.55;;;17.63;;
45642;SDS011;31358;46.008;11.144;2023-03-19T02:04:45;33.03;;;18.63;;
45642;SDS011;31358;46.008;11.144;2023-03-19T02:07:13;34.17;;;19.50;;
45642;SDS011;31358;46.008;11.144;2023-03-19T02:09:39;33.38;;;17.92;;
45642;SDS011;31358;46.008;11.144;2023-03-19T02:12:06;29.55;;;19.83;;
45642;SDS011;31358;46.008;11.144;2023-03-19T02:14:33;33.05;;;18.48;;
45642;SDS011;31358;46.008;11.144;2023-03-19T02:16:58;32.00;;;19.13;;
45642;SDS011;31358;46.008;11.144;2023-03-19T02:19:29;34.30;;;20.10;;
45642;SDS011;31358;46.008;11.144;2023-03-19T02:21:59;33.17;;;19.60;;
45642;SDS011;31358;46.008;11.144;2023-03-19T02:25:10;33.38;;;19.88;;
45642;SDS011;31358;46.008;11.144;2023-03-19T02:27:21;32.47;;;18.70;;
45642;SDS011;31358;46.008;11.144;2023-03-19T02:29:47;33.85;;;20.67;;
45642;SDS011;31358;46.008;11.144;2023-03-19T02:32:13;31.38;;;19.15;;
45642;SDS011;31358;46.008;11.144;2023-03-19T02:34:40;31.45;;;18.48;;
45642;SDS011;31358;46.008;11.144;2023-03-19T02:37:20;36.97;;;19.80;;
45642;SDS011;31358;46.008;11.144;2023-03-19T02:39:52;30.52;;;19.45;;
45642;SDS011;31358;46.008;11.144;2023-03-19T02:42:22;31.02;;;18.85;;
45642;SDS011;31358;46.008;11.144;2023-03-19T02:44:51;36.55;;;20.42;;
45642;SDS011;31358;46.008;11.144;2023-03-19T02:47:17;36.05;;;21.58;;
45642;SDS011;31358;46.008;11.144;2023-03-19T02:49:43;33.30;;;20.38;;
45642;SDS011;31358;46.008;11.144;2023-03-19T02:52:08;32.25;;;19.58;;
45642;SDS011;31358;46.008;11.144;2023-03-19T02:54:34;32.45;;;20.77;;
45642;SDS011;31358;46.008;11.144;2023-03-19T02:57:00;32.88;;;18.98;;
45642;SDS011;31358;46.008;11.144;2023-03-19T02:59:26;35.88;;;19.25;;
45642;SDS011;31358;46.008;11.144;2023-03-19T03:01:51;30.85;;;19.65;;
45642;SDS011;31358;46.008;11.144;2023-03-19T03:04:17;31.10;;;19.42;;
45642;SDS011;31358;46.008;11.144;2023-03-19T03:06:43;34.33;;;19.63;;
45642;SDS011;31358;46.008;11.144;2023-03-19T03:09:09;33.00;;;20.27;;
45642;SDS011;31358;46.008;11.144;2023-03-19T03:11:36;36.42;;;20.38;;
45642;SDS011;31358;46.008;11.144;2023-03-19T03:14:02;33.53;;;19.05;;
45642;SDS011;31358;46.008;11.144;2023-03-19T03:16:28;30.50;;;18.60;;
45642;SDS011;31358;46.008;11.144;2023-03-19T03:18:54;34.78;;;18.75;;
45642;SDS011;31358;46.008;11.144;2023-03-19T03:21:21;34.03;;;19.50;;
45642;SDS011;31358;46.008;11.144;2023-03-19T03:23:47;35.22;;;20.02;;
45642;SDS011;31358;46.008;11.144;2023-03-19T03:26:13;32.65;;;19.33;;
45642;SDS011;31358;46.008;11.144;2023-03-19T03:28:39;36.83;;;20.85;;
45642;SDS011;31358;46.008;11.144;2023-03-19T03:31:05;33.25;;;20.00;;
45642;SDS011;31358;46.008;11.144;2023-03-19T03:33:31;42.17;;;21.33;;
45642;SDS011;31358;46.008;11.144;2023-03-19T03:35:57;35.13;;;20.42;;
45642;SDS011;31358;46.008;11.144;2023-03-19T03:38:23;39.45;;;21.35;;
45642;SDS011;31358;46.008;11.144;2023-03-19T03:40:49;36.10;;;19.60;;
45642;SDS011;31358;46.008;11.144;2023-03-19T03:43:19;36.25;;;19.20;;
45642;SDS011;31358;46.008;11.144;2023-03-19T03:45:46;35.40;;;22.20;;
45642;SDS011;31358;46.008;11.144;2023-03-19T03:48:12;36.65;;;19.35;;
45642;SDS011;31358;46.008;11.144;2023-03-19T03:50:39;37.33;;;20.27;;
45642;SDS011;31358;46.008;11.144;2023-03-19T03:53:04;31.17;;;18.88;;
45642;SDS011;31358;46.008;11.144;2023-03-19T03:55:30;37.50;;;20.55;;
45642;SDS011;31358;46.008;11.144;2023-03-19T03:57:57;32.80;;;18.95;;
45642;SDS011;31358;46.008;11.144;2023-03-19T04:00:22;33.92;;;19.05;;
45642;SDS011;31358;46.008;11.144;2023-03-19T04:02:49;32.60;;;19.23;;
45642;SDS011;31358;46.008;11.144;2023-03-19T04:05:15;36.30;;;21.40;;
45642;SDS011;31358;46.008;11.144;2023-03-19T04:07:41;37.08;;;21.08;;
45642;SDS011;31358;46.008;11.144;2023-03-19T04:10:08;37.05;;;22.17;;
45642;SDS011;31358;46.008;11.144;2023-03-19T04:12:35;33.63;;;19.60;;
45642;SDS011;31358;46.008;11.144;2023-03-19T04:15:02;36.42;;;18.85;;
45642;SDS011;31358;46.008;11.144;2023-03-19T04:17:33;35.50;;;19.67;;
45642;SDS011;31358;46.008;11.144;2023-03-19T04:19:59;34.72;;;20.67;;
45642;SDS011;31358;46.008;11.144;2023-03-19T04:22:26;39.75;;;23.25;;
45642;SDS011;31358;46.008;11.144;2023-03-19T04:24:52;35.17;;;21.13;;
45642;SDS011;31358;46.008;11.144;2023-03-19T04:27:18;41.97;;;20.58;;
45642;SDS011;31358;46.008;11.144;2023-03-19T04:29:44;36.22;;;22.48;;
45642;SDS011;31358;46.008;11.144;2023-03-19T04:32:10;38.50;;;21.10;;
45642;SDS011;31358;46.008;11.144;2023-03-19T04:34:35;30.48;;;18.55;;
45642;SDS011;31358;46.008;11.144;2023-03-19T04:37:01;36.22;;;19.85;;
45642;SDS011;31358;46.008;11.144;2023-03-19T04:39:27;35.28;;;21.33;;
45642;SDS011;31358;46.008;11.144;2023-03-19T04:41:53;37.00;;;22.45;;
45642;SDS011;31358;46.008;11.144;2023-03-19T04:44:18;32.03;;;19.17;;
45642;SDS011;31358;46.008;11.144;2023-03-19T04:46:44;35.72;;;19.90;;
45642;SDS011;31358;46.008;11.144;2023-03-19T04:49:10;39.05;;;20.10;;
45642;SDS011;31358;46.008;11.144;2023-03-19T04:51:36;32.72;;;20.70;;
45642;SDS011;31358;46.008;11.144;2023-03-19T04:54:02;34.58;;;19.92;;
45642;SDS011;31358;46.008;11.144;2023-03-19T04:56:29;35.67;;;21.27;;
45642;SDS011;31358;46.008;11.144;2023-03-19T04:58:55;34.65;;;20.60;;
45642;SDS011;31358;46.008;11.144;2023-03-19T05:01:21;35.17;;;20.48;;
45642;SDS011;31358;46.008;11.144;2023-03-19T05:03:47;35.03;;;19.13;;
45642;SDS011;31358;46.008;11.144;2023-03-19T05:06:13;33.45;;;20.00;;
45642;SDS011;31358;46.008;11.144;2023-03-19T05:08:39;38.03;;;21.58;;
45642;SDS011;31358;46.008;11.144;2023-03-19T05:11:05;37.25;;;20.83;;
45642;SDS011;31358;46.008;11.144;2023-03-19T05:13:30;34.78;;;20.52;;
45642;SDS011;31358;46.008;11.144;2023-03-19T05:15:56;39.03;;;20.52;;
45642;SDS011;31358;46.008;11.144;2023-03-19T05:18:22;32.10;;;19.83;;
45642;SDS011;31358;46.008;11.144;2023-03-19T05:20:48;33.22;;;18.60;;
45642;SDS011;31358;46.008;11.144;2023-03-19T05:23:13;34.95;;;19.05;;
45642;SDS011;31358;46.008;11.144;2023-03-19T05:25:39;31.98;;;18.52;;
45642;SDS011;31358;46.008;11.144;2023-03-19T05:28:05;31.77;;;18.83;;
45642;SDS011;31358;46.008;11.144;2023-03-19T05:30:32;34.20;;;20.70;;
45642;SDS011;31358;46.008;11.144;2023-03-19T05:32:59;31.92;;;18.85;;
45642;SDS011;31358;46.008;11.144;2023-03-19T05:35:25;30.10;;;17.48;;
45642;SDS011;31358;46.008;11.144;2023-03-19T05:37:53;33.30;;;18.35;;
45642;SDS011;31358;46.008;11.144;2023-03-19T05:40:19;31.38;;;18.67;;
45642;SDS011;31358;46.008;11.144;2023-03-19T05:42:46;32.53;;;19.00;;
45642;SDS011;31358;46.008;11.144;2023-03-19T05:45:12;34.78;;;21.20;;
45642;SDS011;31358;46.008;11.144;2023-03-19T05:47:38;36.33;;;21.00;;
45642;SDS011;31358;46.008;11.144;2023-03-19T05:50:05;34.20;;;20.98;;
45642;SDS011;31358;46.008;11.144;2023-03-19T05:52:31;31.95;;;19.48;;
45642;SDS011;31358;46.008;11.144;2023-03-19T05:54:57;31.42;;;18.30;;
45642;SDS011;31358;46.008;11.144;2023-03-19T05:57:23;33.58;;;20.25;;
45642;SDS011;31358;46.008;11.144;2023-03-19T05:59:49;35.72;;;20.55;;
45642;SDS011;31358;46.008;11.144;2023-03-19T06:02:15;35.08;;;21.02;;
45642;SDS011;31358;46.008;11.144;2023-03-19T06:04:41;35.03;;;19.88;;
45642;SDS011;31358;46.008;11.144;2023-03-19T06:07:07;34.45;;;19.67;;
45642;SDS011;31358;46.008;11.144;2023-03-19T06:09:32;32.05;;;18.45;;
45642;SDS011;31358;46.008;11.144;2023-03-19T06:11:58;30.38;;;17.25;;
45642;SDS011;31358;46.008;11.144;2023-03-19T06:14:24;32.35;;;18.42;;
45642;SDS011;31358;46.008;11.144;2023-03-19T06:16:50;36.20;;;18.75;;
45642;SDS011;31358;46.008;11.144;2023-03-19T06:19:16;35.25;;;18.90;;
45642;SDS011;31358;46.008;11.144;2023-03-19T06:21:41;27.98;;;16.27;;
45642;SDS011;31358;46.008;11.144;2023-03-19T06:24:07;32.72;;;18.10;;
45642;SDS011;31358;46.008;11.144;2023-03-19T06:26:33;35.38;;;18.85;;
45642;SDS011;31358;46.008;11.144;2023-03-19T06:28:59;32.90;;;20.02;;
45642;SDS011;31358;46.008;11.144;2023-03-19T06:31:25;39.17;;;21.48;;
45642;SDS011;31358;46.008;11.144;2023-03-19T06:33:51;37.08;;;21.27;;
45642;SDS011;31358;46.008;11.144;2023-03-19T06:36:18;37.78;;;21.83;;
45642;SDS011;31358;46.008;11.144;2023-03-19T06:38:44;29.30;;;18.35;;
45642;SDS011;31358;46.008;11.144;2023-03-19T06:41:10;31.88;;;19.63;;
45642;SDS011;31358;46.008;11.144;2023-03-19T06:43:35;28.80;;;17.13;;
45642;SDS011;31358;46.008;11.144;2023-03-19T06:46:04;32.40;;;18.40;;
45642;SDS011;31358;46.008;11.144;2023-03-19T06:48:31;31.48;;;18.50;;
45642;SDS011;31358;46.008;11.144;2023-03-19T06:50:57;29.70;;;18.00;;
45642;SDS011;31358;46.008;11.144;2023-03-19T06:53:23;32.80;;;19.88;;
45642;SDS011;31358;46.008;11.144;2023-03-19T06:55:49;33.38;;;19.70;;
45642;SDS011;31358;46.008;11.144;2023-03-19T06:58:15;35.88;;;20.48;;
45642;SDS011;31358;46.008;11.144;2023-03-19T07:00:40;34.03;;;20.17;;
45642;SDS011;31358;46.008;11.144;2023-03-19T07:03:06;31.60;;;18.60;;
45642;SDS011;31358;46.008;11.144;2023-03-19T07:05:32;34.95;;;20.27;;
45642;SDS011;31358;46.008;11.144;2023-03-19T07:07:58;29.95;;;18.42;;
45642;SDS011;31358;46.008;11.144;2023-03-19T07:10:24;29.20;;;18.05;;
45642;SDS011;31358;46.008;11.144;2023-03-19T07:12:49;30.58;;;18.63;;
45642;SDS011;31358;46.008;11.144;2023-03-19T07:15:15;29.30;;;18.42;;
45642;SDS011;31358;46.008;11.144;2023-03-19T07:17:41;28.48;;;18.20;;
45642;SDS011;31358;46.008;11.144;2023-03-19T07:20:10;30.75;;;18.05;;
45642;SDS011;31358;46.008;11.144;2023-03-19T07:22:36;35.30;;;18.63;;
45642;SDS011;31358;46.008;11.144;2023-03-19T07:25:02;30.08;;;18.98;;
45642;SDS011;31358;46.008;11.144;2023-03-19T07:27:28;30.05;;;18.92;;
45642;SDS011;31358;46.008;11.144;2023-03-19T07:29:53;30.90;;;18.67;;
45642;SDS011;31358;46.008;11.144;2023-03-19T07:32:19;25.77;;;17.75;;
45642;SDS011;31358;46.008;11.144;2023-03-19T07:34:46;30.63;;;16.73;;
45642;SDS011;31358;46.008;11.144;2023-03-19T07:37:12;27.40;;;16.30;;
45642;SDS011;31358;46.008;11.144;2023-03-19T07:39:37;27.10;;;17.58;;
45642;SDS011;31358;46.008;11.144;2023-03-19T07:42:03;27.02;;;17.40;;
45642;SDS011;31358;46.008;11.144;2023-03-19T07:44:29;26.88;;;17.05;;
45642;SDS011;31358;46.008;11.144;2023-03-19T07:46:55;30.58;;;18.58;;
45642;SDS011;31358;46.008;11.144;2023-03-19T07:49:21;28.80;;;18.13;;
45642;SDS011;31358;46.008;11.144;2023-03-19T07:51:47;29.48;;;16.38;;
45642;SDS011;31358;46.008;11.144;2023-03-19T07:54:13;32.08;;;18.90;;
45642;SDS011;31358;46.008;11.144;2023-03-19T07:56:39;32.67;;;16.80;;
45642;SDS011;31358;46.008;11.144;2023-03-19T07:59:05;27.08;;;17.23;;
45642;SDS011;31358;46.008;11.144;2023-03-19T08:01:30;30.80;;;19.38;;
45642;SDS011;31358;46.008;11.144;2023-03-19T08:03:56;30.65;;;17.55;;
45642;SDS011;31358;46.008;11.144;2023-03-19T08:06:22;26.70;;;17.85;;
45642;SDS011;31358;46.008;11.144;2023-03-19T08:08:48;31.25;;;18.10;;
45642;SDS011;31358;46.008;11.144;2023-03-19T08:11:14;31.00;;;17.45;;
45642;SDS011;31358;46.008;11.144;2023-03-19T08:13:40;25.88;;;17.23;;
45642;SDS011;31358;46.008;11.144;2023-03-19T08:16:06;28.23;;;17.70;;
45642;SDS011;31358;46.008;11.144;2023-03-19T08:18:32;27.08;;;17.85;;
45642;SDS011;31358;46.008;11.144;2023-03-19T08:20:58;29.55;;;17.73;;
45642;SDS011;31358;46.008;11.144;2023-03-19T08:23:24;28.90;;;18.58;;
45642;SDS011;31358;46.008;11.144;2023-03-19T08:25:51;27.92;;;18.55;;
45642;SDS011;31358;46.008;11.144;2023-03-19T08:28:17;29.90;;;18.90;;
45642;SDS011;31358;46.008;11.144;2023-03-19T08:30:44;29.85;;;17.13;;
45642;SDS011;31358;46.008;11.144;2023-03-19T08:33:10;26.67;;;17.77;;
45642;SDS011;31358;46.008;11.144;2023-03-19T08:35:36;30.23;;;19.42;;
45642;SDS011;31358;46.008;11.144;2023-03-19T08:38:02;27.60;;;17.65;;
45642;SDS011;31358;46.008;11.144;2023-03-19T08:40:27;33.72;;;18.65;;
45642;SDS011;31358;46.008;11.144;2023-03-19T08:42:53;26.10;;;16.55;;
45642;SDS011;31358;46.008;11.144;2023-03-19T08:45:21;25.17;;;16.17;;
45642;SDS011;31358;46.008;11.144;2023-03-19T08:47:47;30.00;;;18.65;;
45642;SDS011;31358;46.008;11.144;2023-03-19T08:50:13;28.80;;;17.73;;
45642;SDS011;31358;46.008;11.144;2023-03-19T08:52:39;28.38;;;17.27;;
45642;SDS011;31358;46.008;11.144;2023-03-19T08:55:05;26.30;;;17.13;;
45642;SDS011;31358;46.008;11.144;2023-03-19T08:57:32;23.75;;;15.55;;
45642;SDS011;31358;46.008;11.144;2023-03-19T08:59:58;30.35;;;16.50;;
45642;SDS011;31358;46.008;11.144;2023-03-19T09:02:24;29.38;;;16.20;;
45642;SDS011;31358;46.008;11.144;2023-03-19T09:04:49;30.02;;;17.98;;
45642;SDS011;31358;46.008;11.144;2023-03-19T09:07:15;31.77;;;18.70;;
45642;SDS011;31358;46.008;11.144;2023-03-19T09:09:42;27.83;;;17.83;;
45642;SDS011;31358;46.008;11.144;2023-03-19T09:12:08;26.23;;;16.92;;
45642;SDS011;31358;46.008;11.144;2023-03-19T09:14:37;27.42;;;17.10;;
45642;SDS011;31358;46.008;11.144;2023-03-19T09:17:03;31.00;;;18.00;;
45642;SDS011;31358;46.008;11.144;2023-03-19T09:19:30;28.92;;;16.70;;
45642;SDS011;31358;46.008;11.144;2023-03-19T09:21:55;27.48;;;17.80;;
45642;SDS011;31358;46.008;11.144;2023-03-19T09:24:21;26.40;;;17.17;;
45642;SDS011;31358;46.008;11.144;2023-03-19T09:26:47;29.17;;;18.20;;
45642;SDS011;31358;46.008;11.144;2023-03-19T09:29:13;29.05;;;17.73;;
45642;SDS011;31358;46.008;11.144;2023-03-19T09:31:40;28.30;;;17.77;;
45642;SDS011;31358;46.008;11.144;2023-03-19T09:34:06;28.70;;;17.10;;
45642;SDS011;31358;46.008;11.144;2023-03-19T09:36:33;27.63;;;18.30;;
45642;SDS011;31358;46.008;11.144;2023-03-19T09:39:00;29.80;;;17.63;;
45642;SDS011;31358;46.008;11.144;2023-03-19T09:44:19;29.65;;;18.45;;
45642;SDS011;31358;46.008;11.144;2023-03-19T09:49:42;29.60;;;18.40;;
45642;SDS011;31358;46.008;11.144;2023-03-19T09:52:19;32.13;;;19.48;;
45642;SDS011;31358;46.008;11.144;2023-03-19T09:55:03;31.80;;;18.60;;
45642;SDS011;31358;46.008;11.144;2023-03-19T10:00:39;27.25;;;17.35;;
45642;SDS011;31358;46.008;11.144;2023-03-19T10:16:38;30.45;;;18.52;;
45642;SDS011;31358;46.008;11.144;2023-03-19T10:19:08;28.75;;;18.10;;
45642;SDS011;31358;46.008;11.144;2023-03-19T10:21:38;31.67;;;19.83;;
45642;SDS011;31358;46.008;11.144;2023-03-19T10:24:51;31.25;;;20.20;;
45642;SDS011;31358;46.008;11.144;2023-03-19T10:27:15;38.28;;;20.33;;
45642;SDS011;31358;46.008;11.144;2023-03-19T10:29:42;30.13;;;19.05;;
45642;SDS011;31358;46.008;11.144;2023-03-19T10:34:53;28.98;;;19.15;;
45642;SDS011;31358;46.008;11.144;2023-03-19T10:37:28;33.85;;;21.02;;
45642;SDS011;31358;46.008;11.144;2023-03-19T10:39:55;34.17;;;20.98;;
45642;SDS011;31358;46.008;11.144;2023-03-19T10:47:51;37.13;;;19.35;;
45642;SDS011;31358;46.008;11.144;2023-03-19T10:50:22;30.42;;;19.50;;
45642;SDS011;31358;46.008;11.144;2023-03-19T10:53:03;32.13;;;20.20;;
45642;SDS011;31358;46.008;11.144;2023-03-19T10:55:43;44.70;;;21.25;;
45642;SDS011;31358;46.008;11.144;2023-03-19T10:58:30;33.78;;;20.42;;
45642;SDS011;31358;46.008;11.144;2023-03-19T11:01:02;33.83;;;21.85;;
45642;SDS011;31358;46.008;11.144;2023-03-19T11:03:34;36.40;;;21.13;;
45642;SDS011;31358;46.008;11.144;2023-03-19T11:06:05;33.00;;;20.67;;
45642;SDS011;31358;46.008;11.144;2023-03-19T11:08:35;35.25;;;22.10;;
45642;SDS011;31358;46.008;11.144;2023-03-19T11:11:02;32.47;;;20.92;;
45642;SDS011;31358;46.008;11.144;2023-03-19T11:13:28;32.63;;;21.48;;
45642;SDS011;31358;46.008;11.144;2023-03-19T11:15:56;32.47;;;20.35;;
45642;SDS011;31358;46.008;11.144;2023-03-19T11:18:28;31.77;;;20.65;;
45642;SDS011;31358;46.008;11.144;2023-03-19T11:20:59;44.72;;;28.20;;
45642;SDS011;31358;46.008;11.144;2023-03-19T11:26:02;31.02;;;20.63;;
45642;SDS011;31358;46.008;11.144;2023-03-19T11:28:28;29.90;;;19.13;;
45642;SDS011;31358;46.008;11.144;2023-03-19T11:30:59;31.08;;;19.95;;
45642;SDS011;31358;46.008;11.144;2023-03-19T11:33:59;29.52;;;18.95;;
45642;SDS011;31358;46.008;11.144;2023-03-19T11:42:34;29.85;;;19.58;;
45642;SDS011;31358;46.008;11.144;2023-03-19T11:47:38;30.63;;;18.60;;
45642;SDS011;31358;46.008;11.144;2023-03-19T11:56:12;31.30;;;17.60;;
45642;SDS011;31358;46.008;11.144;2023-03-19T12:04:22;22.70;;;15.45;;
45642;SDS011;31358;46.008;11.144;2023-03-19T12:09:46;27.95;;;18.40;;
45642;SDS011;31358;46.008;11.144;2023-03-19T12:20:41;38.15;;;24.50;;
45642;SDS011;31358;46.008;11.144;2023-03-19T12:26:46;25.15;;;16.73;;
45642;SDS011;31358;46.008;11.144;2023-03-19T12:29:37;32.73;;;18.80;;
45642;SDS011;31358;46.008;11.144;2023-03-19T12:32:33;82.53;;;37.85;;
45642;SDS011;31358;46.008;11.144;2023-03-19T12:35:30;163.98;;;80.10;;
45642;SDS011;31358;46.008;11.144;2023-03-19T12:38:02;96.70;;;57.75;;
45642;SDS011;31358;46.008;11.144;2023-03-19T12:40:42;214.02;;;111.70;;
45642;SDS011;31358;46.008;11.144;2023-03-19T12:48:39;44.10;;;27.42;;
45642;SDS011;31358;46.008;11.144;2023-03-19T12:51:22;39.28;;;24.00;;
45642;SDS011;31358;46.008;11.144;2023-03-19T12:53:58;27.58;;;17.95;;
45642;SDS011;31358;46.008;11.144;2023-03-19T13:02:18;24.88;;;14.93;;
45642;SDS011;31358;46.008;11.144;2023-03-19T13:04:54;23.83;;;14.63;;
45642;SDS011;31358;46.008;11.144;2023-03-19T13:10:36;17.10;;;11.68;;
45642;SDS011;31358;46.008;11.144;2023-03-19T13:13:07;21.17;;;12.13;;
45642;SDS011;31358;46.008;11.144;2023-03-19T13:23:50;23.08;;;14.60;;
45642;SDS011;31358;46.008;11.144;2023-03-19T13:26:42;19.40;;;11.35;;
45642;SDS011;31358;46.008;11.144;2023-03-19T13:31:45;22.48;;;16.60;;
45642;SDS011;31358;46.008;11.144;2023-03-19T13:34:23;16.65;;;10.95;;
45642;SDS011;31358;46.008;11.144;2023-03-19T13:37:02;20.02;;;10.88;;
45642;SDS011;31358;46.008;11.144;2023-03-19T13:39:36;18.98;;;12.52;;
45642;SDS011;31358;46.008;11.144;2023-03-19T13:44:34;19.23;;;11.52;;
45642;SDS011;31358;46.008;11.144;2023-03-19T13:52:41;16.13;;;11.45;;
45642;SDS011;31358;46.008;11.144;2023-03-19T13:55:52;20.92;;;10.18;;
45642;SDS011;31358;46.008;11.144;2023-03-19T13:58:22;15.98;;;9.85;;
45642;SDS011;31358;46.008;11.144;2023-03-19T14:01:09;15.63;;;9.73;;
45642;SDS011;31358;46.008;11.144;2023-03-19T14:03:59;15.27;;;9.68;;
45642;SDS011;31358;46.008;11.144;2023-03-19T14:06:34;12.02;;;8.98;;
45642;SDS011;31358;46.008;11.144;2023-03-19T14:12:10;21.88;;;13.70;;
45642;SDS011;31358;46.008;11.144;2023-03-19T14:14:55;27.05;;;16.40;;
45642;SDS011;31358;46.008;11.144;2023-03-19T14:17:32;19.58;;;11.25;;
45642;SDS011;31358;46.008;11.144;2023-03-19T14:20:42;10.65;;;7.75;;
45642;SDS011;31358;46.008;11.144;2023-03-19T14:31:27;14.07;;;7.60;;
45642;SDS011;31358;46.008;11.144;2023-03-19T14:36:28;14.75;;;6.68;;
45642;SDS011;31358;46.008;11.144;2023-03-19T14:39:41;15.00;;;7.00;;
45642;SDS011;31358;46.008;11.144;2023-03-19T14:52:22;9.55;;;5.97;;
45642;SDS011;31358;46.008;11.144;2023-03-19T14:57:24;10.38;;;6.32;;
45642;SDS011;31358;46.008;11.144;2023-03-19T14:59:55;11.20;;;7.18;;
45642;SDS011;31358;46.008;11.144;2023-03-19T15:07:46;13.52;;;6.07;;
45642;SDS011;31358;46.008;11.144;2023-03-19T15:10:21;10.50;;;6.32;;
45642;SDS011;31358;46.008;11.144;2023-03-19T15:13:03;11.80;;;6.72;;
45642;SDS011;31358;46.008;11.144;2023-03-19T15:18:36;10.00;;;6.15;;
45642;SDS011;31358;46.008;11.144;2023-03-19T15:21:02;12.68;;;7.03;;
45642;SDS011;31358;46.008;11.144;2023-03-19T15:23:29;14.52;;;6.97;;
45642;SDS011;31358;46.008;11.144;2023-03-19T15:25:56;9.65;;;6.43;;
45642;SDS011;31358;46.008;11.144;2023-03-19T15:28:24;12.55;;;7.10;;
45642;SDS011;31358;46.008;11.144;2023-03-19T15:31:10;12.68;;;6.00;;
45642;SDS011;31358;46.008;11.144;2023-03-19T15:33:36;10.93;;;5.95;;
45642;SDS011;31358;46.008;11.144;2023-03-19T15:36:36;12.95;;;6.30;;
45642;SDS011;31358;46.008;11.144;2023-03-19T15:39:06;10.07;;;5.75;;
45642;SDS011;31358;46.008;11.144;2023-03-19T15:41:37;9.25;;;5.13;;
45642;SDS011;31358;46.008;11.144;2023-03-19T15:44:09;14.13;;;5.70;;
45642;SDS011;31358;46.008;11.144;2023-03-19T15:46:40;10.27;;;5.75;;
45642;SDS011;31358;46.008;11.144;2023-03-19T15:49:12;17.60;;;9.65;;
45642;SDS011;31358;46.008;11.144;2023-03-19T15:51:50;40.47;;;25.42;;
45642;SDS011;31358;46.008;11.144;2023-03-19T15:54:20;63.67;;;39.90;;
45642;SDS011;31358;46.008;11.144;2023-03-19T15:56:47;56.40;;;33.75;;
45642;SDS011;31358;46.008;11.144;2023-03-19T15:59:14;44.92;;;26.70;;
45642;SDS011;31358;46.008;11.144;2023-03-19T16:01:42;44.08;;;25.35;;
45642;SDS011;31358;46.008;11.144;2023-03-19T16:04:13;56.97;;;32.08;;
45642;SDS011;31358;46.008;11.144;2023-03-19T16:06:47;23.98;;;13.45;;
45642;SDS011;31358;46.008;11.144;2023-03-19T16:11:48;23.90;;;14.50;;
45642;SDS011;31358;46.008;11.144;2023-03-19T16:17:32;16.90;;;9.43;;
45642;SDS011;31358;46.008;11.144;2023-03-19T16:19:59;23.58;;;14.10;;
45642;SDS011;31358;46.008;11.144;2023-03-19T16:22:28;12.43;;;7.18;;
45642;SDS011;31358;46.008;11.144;2023-03-19T16:24:55;14.63;;;8.02;;
45642;SDS011;31358;46.008;11.144;2023-03-19T16:27:30;14.45;;;8.88;;
45642;SDS011;31358;46.008;11.144;2023-03-19T16:30:00;20.83;;;13.73;;
45642;SDS011;31358;46.008;11.144;2023-03-19T16:32:27;13.70;;;8.32;;
45642;SDS011;31358;46.008;11.144;2023-03-19T16:37:51;13.60;;;8.50;;
45642;SDS011;31358;46.008;11.144;2023-03-19T16:42:53;13.30;;;7.88;;
45642;SDS011;31358;46.008;11.144;2023-03-19T16:45:30;13.57;;;8.35;;
45642;SDS011;31358;46.008;11.144;2023-03-19T16:48:00;15.32;;;9.35;;
45642;SDS011;31358;46.008;11.144;2023-03-19T16:50:31;15.88;;;9.05;;
45642;SDS011;31358;46.008;11.144;2023-03-19T16:52:59;16.10;;;10.63;;